Time;durP1;ratioP1;P1;durP2;ratioP2;P2;SDS_P1;SDS_P2;PMS_P1;PMS_P2;Temp;Humidity;BMP_temperature;BMP_pressure;BME280_temperature;BME280_humidity;BME280_pressure;Samples;Min_cycle;Max_cycle;Signal;HPM_P1;HPM_P2
2021/07/23 00:00:28;;;;;;;5.75;5.22;;;18.90;98.60;;;;;;2106178;28;20028;-68
2021/07/23 00:01:28;;;;;;;5.53;5.00;;;19.00;98.80;;;;;;2105862;28;20417;-68
2021/07/23 00:02:29;;;;;;;5.97;5.20;;;18.90;98.80;;;;;;2106170;28;20086;-68
2021/07/23 00:03:30;;;;;;;6.75;4.57;;;18.90;98.90;;;;;;2111384;28;20118;-68
2021/07/23 00:04:32;;;;;;;5.80;5.00;;;18.90;99.00;;;;;;2104538;28;20039;-68
2021/07/23 00:05:33;;;;;;;6.70;4.95;;;18.90;99.00;;;;;;2105628;28;20036;-68
2021/07/23 00:06:33;;;;;;;5.13;4.72;;;18.90;99.10;;;;;;2106009;28;20024;-68
2021/07/23 00:07:34;;;;;;;5.43;4.75;;;18.90;99.10;;;;;;2105298;28;20463;-68
2021/07/23 00:08:34;;;;;;;6.55;5.10;;;18.90;99.20;;;;;;2105055;28;20073;-68
2021/07/23 00:09:35;;;;;;;7.88;5.38;;;18.80;99.20;;;;;;2113784;28;20434;-68
2021/07/23 00:10:35;;;;;;;6.07;5.47;;;18.80;99.20;;;;;;2106006;28;20016;-68
2021/07/23 00:11:36;;;;;;;6.00;5.28;;;18.80;99.30;;;;;;2105821;28;20032;-68
2021/07/23 00:12:37;;;;;;;6.35;5.50;;;18.80;99.30;;;;;;2105379;28;20052;-68
2021/07/23 00:13:37;;;;;;;7.13;5.60;;;18.80;99.50;;;;;;2105505;28;20020;-68
2021/07/23 00:14:38;;;;;;;6.32;5.20;;;18.80;99.70;;;;;;2112908;28;20115;-68
2021/07/23 00:15:38;;;;;;;7.68;5.15;;;18.80;99.80;;;;;;2114477;28;20028;-68
2021/07/23 00:16:39;;;;;;;5.75;5.20;;;18.80;99.90;;;;;;2114205;28;20395;-68
2021/07/23 00:17:40;;;;;;;6.38;5.70;;;18.70;99.90;;;;;;2114368;28;20027;-68
2021/07/23 00:18:40;;;;;;;6.15;5.65;;;18.70;99.90;;;;;;2113300;28;20024;-68
2021/07/23 00:19:41;;;;;;;5.30;4.90;;;18.70;99.90;;;;;;2113684;28;20035;-68
2021/07/23 00:20:41;;;;;;;4.85;4.47;;;18.70;99.90;;;;;;2114169;28;20455;-68
2021/07/23 00:21:42;;;;;;;14.95;5.20;;;18.60;99.90;;;;;;2114239;28;20054;-68
2021/07/23 00:22:43;;;;;;;5.03;4.53;;;18.60;99.90;;;;;;2113017;28;20038;-68
2021/07/23 00:23:43;;;;;;;5.43;4.93;;;18.60;99.90;;;;;;2109935;28;20047;-68
2021/07/23 00:24:44;;;;;;;8.25;5.53;;;18.60;99.90;;;;;;2105769;28;20108;-68
2021/07/23 00:25:44;;;;;;;6.20;5.07;;;18.60;99.90;;;;;;2105986;28;20024;-68
2021/07/23 00:26:52;;;;;;;4.97;4.47;;;18.60;99.90;;;;;;2105842;28;20024;-68
2021/07/23 00:27:53;;;;;;;5.43;4.95;;;18.60;99.90;;;;;;2106013;28;20020;-68
2021/07/23 00:28:53;;;;;;;5.00;4.60;;;18.60;99.90;;;;;;2105431;28;20044;-68
2021/07/23 00:29:54;;;;;;;6.43;5.20;;;18.50;99.90;;;;;;2106043;28;20024;-68
2021/07/23 00:30:55;;;;;;;5.45;4.95;;;18.50;99.90;;;;;;2105889;28;20028;-68
2021/07/23 00:31:55;;;;;;;7.60;5.22;;;18.50;99.90;;;;;;2105568;28;20095;-68
2021/07/23 00:32:56;;;;;;;6.90;5.07;;;18.50;99.90;;;;;;2105375;28;20487;-68
2021/07/23 00:33:56;;;;;;;6.13;5.05;;;18.50;99.90;;;;;;2105614;28;20457;-68
2021/07/23 00:34:57;;;;;;;6.32;5.57;;;18.50;99.90;;;;;;2104998;28;20031;-68
2021/07/23 00:35:58;;;;;;;5.40;4.90;;;18.50;99.90;;;;;;2097406;28;20460;-68
2021/07/23 00:36:58;;;;;;;5.68;5.28;;;18.50;99.90;;;;;;2101963;28;20026;-68
2021/07/23 00:37:59;;;;;;;5.53;4.97;;;18.50;99.90;;;;;;2105726;28;20106;-68
2021/07/23 00:39:00;;;;;;;6.40;5.70;;;18.50;99.90;;;;;;2105888;28;20443;-68
2021/07/23 00:40:01;;;;;;;5.88;5.38;;;18.40;99.90;;;;;;2105505;28;20028;-68
2021/07/23 00:41:01;;;;;;;6.20;5.25;;;18.50;99.90;;;;;;2106003;28;20066;-68
2021/07/23 00:42:02;;;;;;;5.57;4.78;;;18.50;99.90;;;;;;2105307;28;20108;-68
2021/07/23 00:43:03;;;;;;;8.50;6.13;;;18.40;99.90;;;;;;2104572;28;20486;-68
2021/07/23 00:44:03;;;;;;;6.97;5.10;;;18.40;99.90;;;;;;2104965;28;20031;-68
2021/07/23 00:45:05;;;;;;;6.50;5.50;;;18.40;99.90;;;;;;2109139;28;20054;-68
2021/07/23 00:46:05;;;;;;;6.07;5.57;;;18.40;99.90;;;;;;2113372;28;20525;-68
2021/07/23 00:47:06;;;;;;;5.97;5.35;;;18.40;99.90;;;;;;2113582;28;20688;-68
2021/07/23 00:48:06;;;;;;;9.30;5.78;;;18.40;99.90;;;;;;2113855;28;20019;-68
2021/07/23 00:49:08;;;;;;;5.18;4.78;;;18.40;99.90;;;;;;2113260;28;20479;-68
2021/07/23 00:50:09;;;;;;;5.40;4.93;;;18.40;99.90;;;;;;2113363;28;20042;-68
2021/07/23 00:51:09;;;;;;;5.95;5.35;;;18.40;99.90;;;;;;2113728;28;20053;-68
2021/07/23 00:52:10;;;;;;;8.05;5.00;;;18.40;99.90;;;;;;2114054;28;20028;-68
2021/07/23 00:53:11;;;;;;;5.35;4.93;;;18.30;99.90;;;;;;2113032;28;20023;-68
2021/07/23 00:54:12;;;;;;;7.80;4.57;;;18.30;99.90;;;;;;2106290;28;20024;-68
2021/07/23 00:55:14;;;;;;;7.57;5.70;;;18.30;99.90;;;;;;2103002;28;20032;-68
2021/07/23 00:56:14;;;;;;;4.88;4.38;;;18.30;99.90;;;;;;2103058;28;20036;-68
2021/07/23 00:57:16;;;;;;;5.80;5.30;;;18.30;99.90;;;;;;2104868;28;20020;-68
2021/07/23 00:58:17;;;;;;;5.40;4.88;;;18.30;99.90;;;;;;2103988;28;20128;-68
2021/07/23 00:59:18;;;;;;;6.00;5.40;;;18.30;99.90;;;;;;2113371;28;20046;-68
2021/07/23 01:00:18;;;;;;;6.28;4.93;;;18.30;99.90;;;;;;2105928;28;20046;-69
2021/07/23 01:01:19;;;;;;;6.50;5.65;;;18.30;99.90;;;;;;2105790;28;20101;-68
2021/07/23 01:02:20;;;;;;;6.28;5.32;;;18.30;99.90;;;;;;2105543;28;20471;-68
2021/07/23 01:03:21;;;;;;;8.18;5.68;;;18.30;99.90;;;;;;2105604;28;20028;-68
2021/07/23 01:04:22;;;;;;;4.78;4.45;;;18.30;99.90;;;;;;2100910;28;20028;-68
2021/07/23 01:05:23;;;;;;;6.25;5.75;;;18.30;99.90;;;;;;2106171;28;20084;-68
2021/07/23 01:06:24;;;;;;;5.82;5.20;;;18.20;99.90;;;;;;2105540;28;20448;-68
2021/07/23 01:07:25;;;;;;;6.10;5.60;;;18.20;99.90;;;;;;2105461;28;20471;-68
2021/07/23 01:08:26;;;;;;;5.90;5.22;;;18.20;99.90;;;;;;2106061;28;20471;-68
2021/07/23 01:09:26;;;;;;;6.03;4.93;;;18.20;99.90;;;;;;2105585;28;20451;-68
2021/07/23 01:10:27;;;;;;;5.85;5.30;;;18.20;99.90;;;;;;2106226;28;20108;-68
2021/07/23 01:11:28;;;;;;;5.75;5.22;;;18.20;99.90;;;;;;2103715;28;20020;-68
2021/07/23 01:12:30;;;;;;;6.13;5.05;;;18.20;99.90;;;;;;2101754;28;20103;-68
2021/07/23 01:13:30;;;;;;;6.20;5.30;;;18.20;99.90;;;;;;2103010;28;20028;-68
2021/07/23 01:14:32;;;;;;;5.43;4.95;;;18.20;99.90;;;;;;2103901;28;20114;-68
2021/07/23 01:15:34;;;;;;;5.97;5.03;;;18.20;99.90;;;;;;2101039;28;20024;-68
2021/07/23 01:16:35;;;;;;;5.47;4.90;;;18.20;99.90;;;;;;2107208;28;20019;-68
2021/07/23 01:17:35;;;;;;;6.10;5.20;;;18.20;99.90;;;;;;2105747;28;20024;-68
2021/07/23 01:18:36;;;;;;;5.32;4.88;;;18.20;99.90;;;;;;2107003;28;20047;-68
2021/07/23 01:19:48;;;;;;;5.20;4.70;;;18.20;99.90;;;;;;2107149;28;20091;-68
2021/07/23 01:20:49;;;;;;;4.93;4.30;;;18.20;99.90;;;;;;2107247;28;20044;-68
2021/07/23 01:21:53;;;;;;;7.03;6.03;;;18.10;99.90;;;;;;2107025;28;20121;-68
2021/07/23 01:22:57;;;;;;;6.72;5.13;;;18.10;99.90;;;;;;2107066;28;20392;-68
2021/07/23 01:23:59;;;;;;;5.55;5.10;;;18.10;99.90;;;;;;2103614;28;20032;-68
2021/07/23 01:25:01;;;;;;;5.53;4.22;;;18.10;99.90;;;;;;2106829;28;20020;-68
2021/07/23 01:26:03;;;;;;;7.45;5.07;;;18.10;99.90;;;;;;2106756;27;20448;-68
2021/07/23 01:27:04;;;;;;;5.50;5.00;;;18.10;99.90;;;;;;2106159;28;20363;-68
2021/07/23 01:28:05;;;;;;;7.75;5.18;;;18.10;99.90;;;;;;2107344;28;20039;-68
2021/07/23 01:29:05;;;;;;;6.35;4.97;;;18.10;99.90;;;;;;2107136;28;20016;-68
2021/07/23 01:30:08;;;;;;;4.47;4.13;;;18.10;99.90;;;;;;2107045;28;20022;-68
2021/07/23 01:31:09;;;;;;;6.18;4.72;;;18.00;99.90;;;;;;2107395;28;20013;-68
2021/07/23 01:32:09;;;;;;;5.80;5.25;;;18.00;99.90;;;;;;2106899;28;20043;-68
2021/07/23 01:33:10;;;;;;;5.13;4.68;;;18.00;99.90;;;;;;2115314;28;20028;-68
2021/07/23 01:34:10;;;;;;;7.40;4.68;;;18.00;99.90;;;;;;2109203;28;20028;-68
2021/07/23 01:35:12;;;;;;;5.68;5.18;;;18.00;99.90;;;;;;2112352;28;20106;-68
2021/07/23 01:36:12;;;;;;;6.43;5.20;;;18.00;99.90;;;;;;2104224;28;20025;-68
2021/07/23 01:37:13;;;;;;;5.25;4.78;;;17.90;99.90;;;;;;2108935;28;20052;-68
2021/07/23 01:38:14;;;;;;;7.28;5.45;;;18.00;99.90;;;;;;2114345;28;20036;-68
2021/07/23 01:39:18;;;;;;;7.30;5.35;;;17.90;99.90;;;;;;2114814;28;20060;-68
2021/07/23 01:40:18;;;;;;;7.63;5.05;;;17.90;99.90;;;;;;2109938;28;20051;-68
2021/07/23 01:41:20;;;;;;;4.68;4.28;;;17.90;99.90;;;;;;2107469;28;20390;-68
2021/07/23 01:42:20;;;;;;;4.65;4.35;;;17.90;99.90;;;;;;2107099;28;20075;-68
2021/07/23 01:43:22;;;;;;;6.22;4.72;;;17.90;99.90;;;;;;2106141;28;20039;-68
2021/07/23 01:44:23;;;;;;;6.32;4.97;;;17.90;99.90;;;;;;2106127;28;20020;-68
2021/07/23 01:45:23;;;;;;;6.65;5.35;;;17.80;99.90;;;;;;2107172;28;20096;-68
2021/07/23 01:46:24;;;;;;;5.90;5.38;;;17.80;99.90;;;;;;2106759;28;20085;-68
2021/07/23 01:47:24;;;;;;;5.28;4.78;;;17.80;99.90;;;;;;2107153;28;20099;-68
2021/07/23 01:48:25;;;;;;;6.10;5.50;;;17.80;99.90;;;;;;2106889;28;20028;-68
2021/07/23 01:49:26;;;;;;;5.75;4.95;;;17.80;99.90;;;;;;2107179;28;20052;-68
2021/07/23 01:50:26;;;;;;;5.72;4.97;;;17.80;99.90;;;;;;2107146;28;20020;-68
2021/07/23 01:51:27;;;;;;;7.22;5.05;;;17.70;99.90;;;;;;2107048;28;20031;-68
2021/07/23 01:52:29;;;;;;;8.73;4.68;;;17.70;99.90;;;;;;2106978;28;20059;-68
2021/07/23 01:53:39;;;;;;;5.43;4.93;;;17.70;99.90;;;;;;2106473;28;20095;-68
2021/07/23 01:54:39;;;;;;;5.13;4.72;;;17.70;99.90;;;;;;2104318;28;20111;-68
2021/07/23 01:55:43;;;;;;;6.93;5.60;;;17.60;99.90;;;;;;2106947;28;20117;-68
2021/07/23 01:56:45;;;;;;;5.28;4.78;;;17.60;99.90;;;;;;2106796;28;20024;-68
2021/07/23 01:57:46;;;;;;;6.20;4.32;;;17.60;99.90;;;;;;2107114;28;20028;-68
2021/07/23 01:58:47;;;;;;;6.18;5.30;;;17.60;99.90;;;;;;2106764;28;20032;-68
2021/07/23 01:59:47;;;;;;;9.50;4.88;;;17.60;99.90;;;;;;2106968;28;20028;-68
2021/07/23 02:00:48;;;;;;;6.00;5.40;;;17.60;99.90;;;;;;2106839;28;20115;-68
2021/07/23 02:01:48;;;;;;;5.13;4.63;;;17.60;99.90;;;;;;2106841;28;20032;-68
2021/07/23 02:02:49;;;;;;;5.57;5.05;;;17.60;99.90;;;;;;2106443;28;20016;-68
2021/07/23 02:03:49;;;;;;;5.63;4.85;;;17.60;99.90;;;;;;2107103;28;20027;-68
2021/07/23 02:04:50;;;;;;;6.38;5.18;;;17.50;99.90;;;;;;2113236;28;20039;-68
2021/07/23 02:05:51;;;;;;;5.78;5.18;;;17.50;99.90;;;;;;2115690;28;20023;-68
2021/07/23 02:06:51;;;;;;;5.60;5.10;;;17.50;99.90;;;;;;2114498;28;20042;-68
2021/07/23 02:07:52;;;;;;;4.82;4.43;;;17.50;99.90;;;;;;2114668;28;20016;-68
2021/07/23 02:08:52;;;;;;;8.52;5.40;;;17.40;99.90;;;;;;2114727;28;20020;-68
2021/07/23 02:09:53;;;;;;;6.22;5.50;;;17.40;99.90;;;;;;2115495;28;20102;-68
2021/07/23 02:10:53;;;;;;;5.38;4.90;;;17.40;99.90;;;;;;2113066;28;20027;-68
2021/07/23 02:11:55;;;;;;;4.88;4.38;;;17.40;99.90;;;;;;2098691;28;20082;-68
2021/07/23 02:12:56;;;;;;;7.28;5.05;;;17.40;99.90;;;;;;2101084;28;20039;-68
2021/07/23 02:14:03;;;;;;;5.63;5.07;;;17.40;99.90;;;;;;2099692;28;20020;-68
2021/07/23 02:15:06;;;;;;;5.70;5.10;;;17.40;99.90;;;;;;2098201;28;20051;-68
2021/07/23 02:16:06;;;;;;;4.63;4.20;;;17.40;99.90;;;;;;2099237;28;20024;-68
2021/07/23 02:17:07;;;;;;;5.60;5.10;;;17.40;99.90;;;;;;2099010;28;20035;-68
2021/07/23 02:18:08;;;;;;;6.13;5.53;;;17.30;99.90;;;;;;2099207;28;20017;-68
2021/07/23 02:19:08;;;;;;;5.38;4.88;;;17.40;99.90;;;;;;2099893;28;20479;-68
2021/07/23 02:20:09;;;;;;;6.65;6.05;;;17.40;99.90;;;;;;2106336;28;20024;-68
2021/07/23 02:21:10;;;;;;;6.18;5.57;;;17.30;99.90;;;;;;2106283;28;20052;-68
2021/07/23 02:22:10;;;;;;;6.00;5.20;;;17.40;99.90;;;;;;2100507;28;20387;-68
2021/07/23 02:23:11;;;;;;;4.80;4.40;;;17.30;99.90;;;;;;2104825;28;20038;-68
2021/07/23 02:24:11;;;;;;;4.97;4.60;;;17.30;99.90;;;;;;2102414;28;20463;-68
2021/07/23 02:25:12;;;;;;;5.40;4.90;;;17.30;99.90;;;;;;2100330;28;20597;-68
2021/07/23 02:26:19;;;;;;;5.35;4.85;;;17.30;99.90;;;;;;2106830;28;20012;-68
2021/07/23 02:27:19;;;;;;;5.32;4.90;;;17.30;99.90;;;;;;2106734;28;20024;-68
2021/07/23 02:28:20;;;;;;;5.43;4.93;;;17.30;99.90;;;;;;2110612;28;20081;-68
2021/07/23 02:29:20;;;;;;;6.13;5.22;;;17.30;99.90;;;;;;2100891;28;20052;-68
2021/07/23 02:30:21;;;;;;;5.70;5.18;;;17.30;99.90;;;;;;2113029;28;20023;-68
2021/07/23 02:31:22;;;;;;;8.05;5.50;;;17.30;99.90;;;;;;2113285;27;20020;-68
2021/07/23 02:32:22;;;;;;;6.93;5.55;;;17.30;99.90;;;;;;2106669;28;20073;-68
2021/07/23 02:33:23;;;;;;;6.57;6.07;;;17.30;99.90;;;;;;2106410;28;20460;-68
2021/07/23 02:34:24;;;;;;;6.45;5.85;;;17.30;99.90;;;;;;2106378;28;20016;-68
2021/07/23 02:35:24;;;;;;;9.10;6.68;;;17.30;99.90;;;;;;2101286;28;20028;-68
2021/07/23 02:36:25;;;;;;;6.25;5.65;;;17.30;99.90;;;;;;2097153;28;20498;-68
2021/07/23 02:37:25;;;;;;;6.20;5.63;;;17.30;99.90;;;;;;2106179;28;20115;-68
2021/07/23 02:38:26;;;;;;;8.10;6.00;;;17.30;99.90;;;;;;2106737;28;20024;-68
2021/07/23 02:39:26;;;;;;;6.30;5.70;;;17.30;99.90;;;;;;2106754;28;20016;-68
2021/07/23 02:40:27;;;;;;;7.78;6.28;;;17.30;99.90;;;;;;2106699;28;20093;-68
2021/07/23 02:41:27;;;;;;;5.95;5.35;;;17.30;99.90;;;;;;2106579;28;20027;-68
2021/07/23 02:42:28;;;;;;;7.68;6.03;;;17.30;99.90;;;;;;2106532;28;20024;-68
2021/07/23 02:43:29;;;;;;;5.55;5.07;;;17.30;99.90;;;;;;2106471;28;20031;-68
2021/07/23 02:44:29;;;;;;;6.30;5.70;;;17.30;99.90;;;;;;2106510;28;20028;-68
2021/07/23 02:45:30;;;;;;;6.53;5.55;;;17.30;99.90;;;;;;2114178;28;20100;-68
2021/07/23 02:46:30;;;;;;;5.95;5.40;;;17.30;99.90;;;;;;2115003;28;20035;-68
2021/07/23 02:47:31;;;;;;;5.85;5.00;;;17.30;99.90;;;;;;2115136;28;20016;-68
2021/07/23 02:48:31;;;;;;;5.60;5.10;;;17.30;99.90;;;;;;2114823;28;20104;-68
2021/07/23 02:49:32;;;;;;;5.80;5.18;;;17.30;99.90;;;;;;2115222;28;20016;-68
2021/07/23 02:50:32;;;;;;;5.97;5.45;;;17.30;99.90;;;;;;2114920;28;20024;-68
2021/07/23 02:51:33;;;;;;;6.22;5.65;;;17.30;99.90;;;;;;2114995;28;20031;-68
2021/07/23 02:52:36;;;;;;;8.18;5.40;;;17.30;99.90;;;;;;2113983;28;20027;-68
2021/07/23 02:53:37;;;;;;;6.57;5.97;;;17.30;99.90;;;;;;2114459;28;20149;-68
2021/07/23 02:54:37;;;;;;;5.75;5.00;;;17.30;99.90;;;;;;2109115;28;20061;-68
2021/07/23 02:55:38;;;;;;;6.57;6.03;;;17.30;99.90;;;;;;2106854;28;20028;-68
2021/07/23 02:56:38;;;;;;;5.55;5.15;;;17.30;99.90;;;;;;2106496;28;20023;-68
2021/07/23 02:57:39;;;;;;;6.25;5.65;;;17.20;99.90;;;;;;2106676;28;20020;-68
2021/07/23 02:58:42;;;;;;;8.45;6.82;;;17.20;99.90;;;;;;2106642;28;20481;-68
2021/07/23 02:59:42;;;;;;;6.28;5.72;;;17.30;99.90;;;;;;2106706;28;20114;-68
2021/07/23 03:00:43;;;;;;;7.53;6.15;;;17.30;99.90;;;;;;2106380;28;20125;-68
2021/07/23 03:01:43;;;;;;;6.68;6.00;;;17.20;99.90;;;;;;2106134;28;20020;-68
2021/07/23 03:02:44;;;;;;;5.90;5.40;;;17.20;99.90;;;;;;2105709;28;20077;-68
2021/07/23 03:03:44;;;;;;;7.07;6.38;;;17.20;99.90;;;;;;2106643;28;20012;-68
2021/07/23 03:04:45;;;;;;;9.98;6.45;;;17.20;99.90;;;;;;2106091;28;20077;-68
2021/07/23 03:05:45;;;;;;;8.63;6.22;;;17.20;99.90;;;;;;2107499;28;20344;-68
2021/07/23 03:06:46;;;;;;;8.73;6.90;;;17.20;99.90;;;;;;2115000;28;20054;-68
2021/07/23 03:07:53;;;;;;;7.40;6.45;;;17.20;99.90;;;;;;2114947;28;20030;-68
2021/07/23 03:08:53;;;;;;;6.40;5.80;;;17.20;99.90;;;;;;2114865;28;20016;-68
2021/07/23 03:09:54;;;;;;;9.88;7.30;;;17.10;99.90;;;;;;2114890;28;20102;-68
2021/07/23 03:10:55;;;;;;;7.75;6.50;;;17.10;99.90;;;;;;2115094;28;20072;-68
2021/07/23 03:11:58;;;;;;;7.25;6.55;;;17.10;99.90;;;;;;2114628;28;20459;-68
2021/07/23 03:12:58;;;;;;;7.22;6.53;;;17.10;99.90;;;;;;2114324;28;20043;-68
2021/07/23 03:13:59;;;;;;;6.10;5.50;;;17.10;99.90;;;;;;2114773;28;20080;-68
2021/07/23 03:15:00;;;;;;;8.38;6.05;;;17.10;99.90;;;;;;2108799;28;20380;-68
2021/07/23 03:16:00;;;;;;;7.07;6.38;;;17.10;99.90;;;;;;2111432;28;20046;-68
2021/07/23 03:17:01;;;;;;;7.55;6.82;;;17.10;99.90;;;;;;2114864;28;20027;-68
2021/07/23 03:18:02;;;;;;;8.32;7.30;;;17.00;99.90;;;;;;2114795;28;20031;-68
2021/07/23 03:19:02;;;;;;;7.93;7.18;;;17.00;99.90;;;;;;2114887;28;20390;-68
2021/07/23 03:20:04;;;;;;;7.78;6.72;;;17.10;99.90;;;;;;2114674;28;20032;-68
2021/07/23 03:21:04;;;;;;;7.65;6.93;;;17.10;99.90;;;;;;2114735;28;20023;-68
2021/07/23 03:22:05;;;;;;;7.13;6.53;;;17.00;99.90;;;;;;2114520;28;20095;-68
2021/07/23 03:23:06;;;;;;;8.68;7.47;;;17.00;99.90;;;;;;2114491;28;20102;-68
2021/07/23 03:24:06;;;;;;;8.35;7.10;;;17.00;99.90;;;;;;2113980;28;20102;-68
2021/07/23 03:25:08;;;;;;;7.57;6.68;;;17.00;99.90;;;;;;2107476;28;20043;-68
2021/07/23 03:26:09;;;;;;;7.30;6.25;;;17.00;99.90;;;;;;2106236;28;20017;-68
2021/07/23 03:27:09;;;;;;;8.32;7.53;;;17.00;99.90;;;;;;2106447;28;20028;-68
2021/07/23 03:28:10;;;;;;;6.13;5.38;;;17.00;99.90;;;;;;2106289;28;20455;-68
2021/07/23 03:29:10;;;;;;;7.50;6.80;;;17.00;99.90;;;;;;2106513;28;20024;-68
2021/07/23 03:30:11;;;;;;;9.43;6.38;;;17.00;99.90;;;;;;2106103;28;20076;-68
2021/07/23 03:31:13;;;;;;;7.80;7.00;;;17.00;99.90;;;;;;2106179;28;20016;-68
2021/07/23 03:32:13;;;;;;;7.15;6.45;;;16.90;99.90;;;;;;2105954;28;20107;-68
2021/07/23 03:33:14;;;;;;;7.15;6.40;;;17.00;99.90;;;;;;2106021;28;20479;-68
2021/07/23 03:34:14;;;;;;;6.63;6.03;;;17.00;99.90;;;;;;2106193;28;20028;-68
2021/07/23 03:35:15;;;;;;;6.55;5.95;;;17.00;99.90;;;;;;2102659;28;20032;-68
2021/07/23 03:36:15;;;;;;;5.90;5.40;;;17.00;99.90;;;;;;2097639;28;20024;-68
2021/07/23 03:37:16;;;;;;;7.10;6.40;;;16.90;99.90;;;;;;2104858;28;20036;-68
2021/07/23 03:38:16;;;;;;;8.60;6.78;;;16.90;99.90;;;;;;2106227;28;20036;-68
2021/07/23 03:39:17;;;;;;;9.60;7.57;;;16.90;99.90;;;;;;2106512;28;20032;-68
2021/07/23 03:40:18;;;;;;;7.07;6.45;;;16.90;99.90;;;;;;2105874;28;20040;-68
2021/07/23 03:41:18;;;;;;;6.55;5.95;;;16.90;99.90;;;;;;2106675;28;20031;-68
2021/07/23 03:42:19;;;;;;;6.93;6.22;;;16.90;99.90;;;;;;2106039;28;20109;-68
2021/07/23 03:43:19;;;;;;;7.63;6.85;;;16.80;99.90;;;;;;2106093;28;20047;-68
2021/07/23 03:44:20;;;;;;;7.22;6.63;;;16.90;99.90;;;;;;2106249;28;20483;-68
2021/07/23 03:45:21;;;;;;;7.13;6.43;;;16.90;99.90;;;;;;2106127;28;20356;-68
2021/07/23 03:46:21;;;;;;;7.38;6.68;;;16.80;99.90;;;;;;2107181;28;20471;-68
2021/07/23 03:47:22;;;;;;;7.28;6.05;;;16.90;99.90;;;;;;2114759;28;20020;-68
2021/07/23 03:48:22;;;;;;;7.82;6.45;;;16.80;99.90;;;;;;2110205;28;20081;-68
2021/07/23 03:49:23;;;;;;;9.68;6.63;;;16.90;99.90;;;;;;2106238;28;20486;-68
2021/07/23 03:50:23;;;;;;;6.97;6.28;;;16.80;99.90;;;;;;2105779;28;20020;-68
2021/07/23 03:51:24;;;;;;;7.05;6.45;;;16.80;99.90;;;;;;2106153;28;20036;-68
2021/07/23 03:52:24;;;;;;;10.02;6.85;;;16.80;99.90;;;;;;2105427;28;20451;-68
2021/07/23 03:53:26;;;;;;;7.72;6.43;;;16.80;99.90;;;;;;2105233;28;20107;-68
2021/07/23 03:54:26;;;;;;;7.10;6.40;;;16.80;99.90;;;;;;2104940;28;20032;-68
2021/07/23 03:55:27;;;;;;;8.65;6.82;;;16.80;99.90;;;;;;2108365;28;20027;-69
2021/07/23 03:56:27;;;;;;;8.27;7.45;;;16.80;99.90;;;;;;2109976;28;20656;-68
2021/07/23 03:57:28;;;;;;;7.03;6.43;;;16.80;99.90;;;;;;2114549;28;20027;-68
2021/07/23 03:58:28;;;;;;;6.35;5.63;;;16.70;99.90;;;;;;2107067;28;20024;-68
2021/07/23 03:59:29;;;;;;;8.27;6.45;;;16.80;99.90;;;;;;2106102;28;20613;-69
2021/07/23 04:00:29;;;;;;;8.55;7.38;;;16.80;99.90;;;;;;2106229;28;20463;-68
2021/07/23 04:01:30;;;;;;;8.23;7.53;;;16.80;99.90;;;;;;2105682;28;20536;-68
2021/07/23 04:02:30;;;;;;;8.15;7.40;;;16.80;99.90;;;;;;2106130;28;20077;-69
2021/07/23 04:03:31;;;;;;;8.35;7.47;;;16.80;99.90;;;;;;2107879;28;20034;-68
2021/07/23 04:04:32;;;;;;;7.75;7.05;;;16.70;99.90;;;;;;2113138;28;20012;-68
2021/07/23 04:05:33;;;;;;;7.97;7.20;;;16.80;99.90;;;;;;2108789;28;20091;-68
2021/07/23 04:06:33;;;;;;;9.52;7.43;;;16.70;99.90;;;;;;2107144;28;20426;-68
2021/07/23 04:07:34;;;;;;;7.78;7.03;;;16.70;99.90;;;;;;2106022;28;20111;-68
2021/07/23 04:08:34;;;;;;;6.05;5.55;;;16.70;99.90;;;;;;2106228;28;20028;-68
2021/07/23 04:09:35;;;;;;;8.25;7.47;;;16.70;99.90;;;;;;2106266;28;20340;-68
2021/07/23 04:10:35;;;;;;;8.23;6.43;;;16.70;99.90;;;;;;2106125;28;20107;-68
2021/07/23 04:11:46;;;;;;;6.93;6.30;;;16.70;99.90;;;;;;2105861;28;20501;-68
2021/07/23 04:12:46;;;;;;;8.43;7.63;;;16.70;99.90;;;;;;2105814;28;20419;-68
2021/07/23 04:13:47;;;;;;;7.70;6.38;;;16.70;99.90;;;;;;2105949;28;20556;-68
2021/07/23 04:14:48;;;;;;;8.00;7.25;;;16.70;99.90;;;;;;2105710;28;20077;-68
2021/07/23 04:15:48;;;;;;;8.52;6.95;;;16.70;99.90;;;;;;2108361;28;20085;-68
2021/07/23 04:16:50;;;;;;;7.75;7.05;;;16.70;99.90;;;;;;2114504;28;20031;-68
2021/07/23 04:17:50;;;;;;;9.57;7.65;;;16.70;99.90;;;;;;2114327;28;20058;-68
2021/07/23 04:18:51;;;;;;;9.05;7.05;;;16.70;99.90;;;;;;2114547;28;20032;-68
2021/07/23 04:19:52;;;;;;;7.50;6.28;;;16.70;99.90;;;;;;2114338;28;20114;-68
2021/07/23 04:20:52;;;;;;;8.43;7.32;;;16.70;99.90;;;;;;2114352;28;20027;-68
2021/07/23 04:21:53;;;;;;;7.50;6.90;;;16.70;99.90;;;;;;2114243;28;20088;-68
2021/07/23 04:22:53;;;;;;;10.77;7.38;;;16.70;99.90;;;;;;2114195;28;20027;-68
2021/07/23 04:23:54;;;;;;;9.77;7.07;;;16.70;99.90;;;;;;2114335;28;20027;-68
2021/07/23 04:24:54;;;;;;;7.45;6.70;;;16.70;99.90;;;;;;2111330;28;20128;-68
2021/07/23 04:25:55;;;;;;;7.82;7.03;;;16.60;99.90;;;;;;2105836;28;20026;-68
2021/07/23 04:26:59;;;;;;;8.60;6.47;;;16.60;99.90;;;;;;2105612;28;20076;-68
2021/07/23 04:27:59;;;;;;;8.50;7.60;;;16.70;99.90;;;;;;2105774;28;20027;-68
2021/07/23 04:29:00;;;;;;;9.27;7.88;;;16.70;99.90;;;;;;2105951;28;20044;-68
2021/07/23 04:30:01;;;;;;;7.75;7.03;;;16.70;99.90;;;;;;2105814;28;20024;-68
2021/07/23 04:31:01;;;;;;;7.75;7.05;;;16.70;99.90;;;;;;2105842;28;20103;-68
2021/07/23 04:32:02;;;;;;;9.30;7.30;;;16.60;99.90;;;;;;2105637;28;20069;-68
2021/07/23 04:33:03;;;;;;;7.63;6.82;;;16.60;99.90;;;;;;2105781;28;20467;-68
2021/07/23 04:34:03;;;;;;;9.55;7.47;;;16.70;99.90;;;;;;2105990;28;20048;-68
2021/07/23 04:35:05;;;;;;;9.93;8.27;;;16.70;99.90;;;;;;2103588;28;20020;-68
2021/07/23 04:36:05;;;;;;;12.63;7.25;;;16.70;99.90;;;;;;2097424;28;20815;-68
2021/07/23 04:37:06;;;;;;;11.10;8.32;;;16.70;99.90;;;;;;2102986;28;20387;-68
2021/07/23 04:38:06;;;;;;;9.20;7.80;;;16.70;99.90;;;;;;2105932;28;20024;-69
2021/07/23 04:39:07;;;;;;;10.15;9.15;;;16.70;99.90;;;;;;2105836;28;20081;-68
2021/07/23 04:40:08;;;;;;;9.05;8.00;;;16.80;99.90;;;;;;2105908;28;20471;-69
2021/07/23 04:41:09;;;;;;;8.57;7.70;;;16.80;99.90;;;;;;2105678;28;20132;-68
2021/07/23 04:42:10;;;;;;;8.82;7.93;;;16.90;99.90;;;;;;2105502;28;20028;-69
2021/07/23 04:43:10;;;;;;;10.60;8.18;;;17.00;99.90;;;;;;2105492;28;20111;-68
2021/07/23 04:44:11;;;;;;;9.38;8.48;;;17.00;99.90;;;;;;2106100;28;20024;-68
2021/07/23 04:45:12;;;;;;;9.48;8.57;;;17.00;99.90;;;;;;2105448;28;20028;-68
2021/07/23 04:46:13;;;;;;;10.82;9.30;;;17.10;99.90;;;;;;2105841;28;20370;-68
2021/07/23 04:47:13;;;;;;;10.35;8.43;;;17.10;99.90;;;;;;2113809;28;20023;-68
2021/07/23 04:48:14;;;;;;;11.50;10.05;;;17.10;99.90;;;;;;2114410;28;20031;-68
2021/07/23 04:49:14;;;;;;;8.70;8.00;;;17.10;99.90;;;;;;2114226;28;20111;-68
2021/07/23 04:50:15;;;;;;;10.25;9.25;;;17.10;99.90;;;;;;2116030;28;20023;-68
2021/07/23 04:51:15;;;;;;;9.85;8.70;;;17.10;99.90;;;;;;2116931;28;20016;-68
2021/07/23 04:52:16;;;;;;;9.57;8.55;;;17.10;99.90;;;;;;2116925;28;20032;-68
2021/07/23 04:53:17;;;;;;;12.40;9.38;;;17.10;99.90;;;;;;2116654;28;20032;-69
2021/07/23 04:54:18;;;;;;;10.18;8.75;;;17.10;99.90;;;;;;2117187;28;20090;-69
2021/07/23 04:55:19;;;;;;;14.00;9.55;;;17.10;99.90;;;;;;2110659;27;20032;-69
2021/07/23 04:56:19;;;;;;;9.38;8.52;;;17.20;99.90;;;;;;2108716;28;20119;-69
2021/07/23 04:57:26;;;;;;;9.73;8.45;;;17.20;99.90;;;;;;2108332;28;20737;-68
2021/07/23 04:58:27;;;;;;;9.27;8.38;;;17.20;99.90;;;;;;2108682;28;20023;-69
2021/07/23 04:59:28;;;;;;;9.30;8.30;;;17.20;99.90;;;;;;2108380;28;20035;-68
2021/07/23 05:00:29;;;;;;;9.70;8.70;;;17.20;99.90;;;;;;2108695;28;20486;-68
2021/07/23 05:01:29;;;;;;;9.60;8.70;;;17.30;99.90;;;;;;2110562;28;20024;-68
2021/07/23 05:02:30;;;;;;;9.88;8.52;;;17.30;99.90;;;;;;2108563;28;20095;-69
2021/07/23 05:03:39;;;;;;;9.45;8.55;;;17.30;99.90;;;;;;2108277;28;20463;-69
2021/07/23 05:04:39;;;;;;;8.70;7.88;;;17.40;99.90;;;;;;2108481;28;20089;-68
2021/07/23 05:05:41;;;;;;;8.55;7.82;;;17.30;99.90;;;;;;2108012;28;20032;-69
2021/07/23 05:06:42;;;;;;;9.48;8.57;;;17.40;99.90;;;;;;2100304;28;20024;-68
2021/07/23 05:07:43;;;;;;;9.45;8.43;;;17.40;99.90;;;;;;2103488;28;20106;-68
2021/07/23 05:08:43;;;;;;;7.97;7.03;;;17.50;99.90;;;;;;2108887;28;20027;-69
2021/07/23 05:09:44;;;;;;;9.27;8.38;;;17.60;99.90;;;;;;2108370;28;20024;-68
2021/07/23 05:10:44;;;;;;;11.05;8.73;;;17.50;99.90;;;;;;2108596;28;20472;-68
2021/07/23 05:11:46;;;;;;;11.55;8.25;;;17.50;99.90;;;;;;2108397;28;20073;-69
2021/07/23 05:12:47;;;;;;;11.77;9.68;;;17.60;99.90;;;;;;2108196;28;20032;-69
2021/07/23 05:13:47;;;;;;;10.35;8.82;;;17.70;99.90;;;;;;2108041;28;20016;-68
2021/07/23 05:14:48;;;;;;;10.10;8.77;;;17.70;99.90;;;;;;2108363;28;20028;-68
2021/07/23 05:15:49;;;;;;;10.75;9.13;;;17.70;99.90;;;;;;2108630;28;20024;-68
2021/07/23 05:16:49;;;;;;;8.88;8.07;;;17.80;99.90;;;;;;2108486;28;20087;-68